Patriot — WDF5853 — position and weather

sailwx.info

Track history (hours):
 
Tides and Currents Weather Stations Pressure Air Temp Water Temp Dewpoint Dewpoint Depression Visibility Wind Speed Wind Dir Waves Ship Positions

Patriot

Owner: Adventure Sailing Charters, LLC, Ashaway, RI. More information available from US FCC via Universal Licensing System and Coast Guard Vessel Documentation Center.

Last reported at 2015-Jul-21 09:33 UTC. Time now 2015-Sep-02 14:53 UTC.
Position N 39°14' W 076°15'.
Warning: this ship's position is 43 days out of date.

Length 14 m.

Type: Sailing vessel. MMSI: 367467920.

Date/timePositionNaut miles runAvg speedWind from/ knotsBaromVisibWave heightAir tempDewpointWater temp
2015-Jul-21 09:33N 39°14' W 076°15'7 7.0
2015-Jul-21 08:32N 39°20' W 076°11'7 6.7
2015-Jul-21 07:33N 39°24' W 076°03'6 6.0
2015-Jul-21 06:32N 39°28' W 075°58'5 5.4
2015-Jul-21 05:33N 39°31' W 075°52'5 4.8
2015-Jul-21 04:33N 39°32' W 075°46'5 4.5
2015-Jul-21 03:33N 39°33' W 075°41'4 4.2
2015-Jul-21 02:34N 39°33' W 075°35'3 2.7
2015-Jul-21 01:34N 39°31' W 075°33'4 3.9
2015-Jul-21 00:33N 39°27' W 075°33'4 4.1
2015-Jul-20 23:33N 39°24' W 075°30'5 4.5
2015-Jul-20 22:33N 39°21' W 075°26'5 5.0
2015-Jul-20 21:33N 39°17' W 075°22'6 5.0
2015-Jul-20 20:25N 39°12' W 075°17'10 5.5
2015-Jul-20 18:31N 39°04' W 075°10'12 6.1
2015-Jul-20 16:34N 38°54' W 075°02'20 5.0
2015-Jul-20 12:33N 39°02' W 074°39'44 3.6
2015-Jul-20 00:14N 39°32' W 073°57'9 3.2
2015-Jul-19 21:19N 39°41' W 073°55'6 6.8
2015-Jul-19 20:30N 39°45' W 074°01'61 4.9
2015-Jul-19 08:12N 39°56' W 072°43'3 5.3
2015-Jul-19 07:33N 39°56' W 072°39'5 5.0
2015-Jul-19 06:31N 39°57' W 072°32'6 5.4
2015-Jul-19 05:27N 39°58' W 072°25'7 5.5
2015-Jul-19 04:13N 39°60' W 072°16'21 5.6
2015-Jul-19 00:29N 40°02' W 071°49'6 6.1
2015-Jul-18 23:33N 40°02' W 071°41'6 6.3
2015-Jul-18 22:33N 40°02' W 071°33'5 4.6
2015-Jul-18 21:32N 39°59' W 071°28'6 6.3
2015-Jul-18 20:33N 39°59' W 071°20'39 6.1
2015-Jul-18 14:10N 40°01' W 070°29'4 6.4
2015-Jul-18 13:33N 40°03' W 070°25'12 6.2
2015-Jul-18 11:33N 40°07' W 070°09'  
Track history (hours):
 
Tides and Currents Weather Stations Pressure Air Temp Water Temp Dewpoint Dewpoint Depression Visibility Wind Speed Wind Dir Waves Ship Positions

Patriot

Owner: Adventure Sailing Charters, LLC, Ashaway, RI. More information available from US FCC via Universal Licensing System and Coast Guard Vessel Documentation Center.

Last reported at 2015-Jul-21 09:33 UTC. Time now 2015-Sep-02 14:53 UTC.
Position N 39°14' W 076°15'.
Warning: this ship's position is 43 days out of date.

Length 14 m.

Type: Sailing vessel. MMSI: 367467920.

Date/timePositionNaut miles runAvg speedWind from/ knotsBaromVisibWave heightAir tempDewpointWater temp
2015-Jul-21 09:33N 39°14' W 076°15'7 7.0
2015-Jul-21 08:32N 39°20' W 076°11'7 6.7
2015-Jul-21 07:33N 39°24' W 076°03'6 6.0
2015-Jul-21 06:32N 39°28' W 075°58'5 5.4
2015-Jul-21 05:33N 39°31' W 075°52'5 4.8
2015-Jul-21 04:33N 39°32' W 075°46'5 4.5
2015-Jul-21 03:33N 39°33' W 075°41'4 4.2
2015-Jul-21 02:34N 39°33' W 075°35'3 2.7
2015-Jul-21 01:34N 39°31' W 075°33'4 3.9
2015-Jul-21 00:33N 39°27' W 075°33'4 4.1
2015-Jul-20 23:33N 39°24' W 075°30'5 4.5
2015-Jul-20 22:33N 39°21' W 075°26'5 5.0
2015-Jul-20 21:33N 39°17' W 075°22'6 5.0
2015-Jul-20 20:25N 39°12' W 075°17'10 5.5
2015-Jul-20 18:31N 39°04' W 075°10'12 6.1
2015-Jul-20 16:34N 38°54' W 075°02'20 5.0
2015-Jul-20 12:33N 39°02' W 074°39'44 3.6
2015-Jul-20 00:14N 39°32' W 073°57'9 3.2
2015-Jul-19 21:19N 39°41' W 073°55'6 6.8
2015-Jul-19 20:30N 39°45' W 074°01'61 4.9
2015-Jul-19 08:12N 39°56' W 072°43'3 5.3
2015-Jul-19 07:33N 39°56' W 072°39'5 5.0
2015-Jul-19 06:31N 39°57' W 072°32'6 5.4
2015-Jul-19 05:27N 39°58' W 072°25'7 5.5
2015-Jul-19 04:13N 39°60' W 072°16'21 5.6
2015-Jul-19 00:29N 40°02' W 071°49'6 6.1
2015-Jul-18 23:33N 40°02' W 071°41'6 6.3
2015-Jul-18 22:33N 40°02' W 071°33'5 4.6
2015-Jul-18 21:32N 39°59' W 071°28'6 6.3
2015-Jul-18 20:33N 39°59' W 071°20'39 6.1
2015-Jul-18 14:10N 40°01' W 070°29'4 6.4
2015-Jul-18 13:33N 40°03' W 070°25'12 6.2
2015-Jul-18 11:33N 40°07' W 070°09'  

Dump ship's entire track history